sensor_id;sensor_type;location;lat;lon;timestamp;pressure;altitude;pressure_sealevel;temperature;humidity
60337;BME280;46978;50.288;28.624;2023-02-14T00:01:09;99543.98;;;1.38;100.00
60337;BME280;46978;50.288;28.624;2023-02-14T00:02:11;99543.13;;;1.37;100.00
60337;BME280;46978;50.288;28.624;2023-02-14T00:03:13;99538.88;;;1.38;100.00
60337;BME280;46978;50.288;28.624;2023-02-14T00:04:16;99541.43;;;1.38;100.00
60337;BME280;46978;50.288;28.624;2023-02-14T00:05:18;99535.50;;;1.39;100.00
60337;BME280;46978;50.288;28.624;2023-02-14T00:06:20;99537.23;;;1.40;100.00
60337;BME280;46978;50.288;28.624;2023-02-14T00:07:21;99536.31;;;1.38;100.00
60337;BME280;46978;50.288;28.624;2023-02-14T00:08:23;99546.55;;;1.38;100.00
60337;BME280;46978;50.288;28.624;2023-02-14T00:09:25;99540.61;;;1.39;100.00
60337;BME280;46978;50.288;28.624;2023-02-14T00:10:27;99532.09;;;1.38;100.00
60337;BME280;46978;50.288;28.624;2023-02-14T00:11:28;99538.02;;;1.37;100.00
60337;BME280;46978;50.288;28.624;2023-02-14T00:12:30;99527.80;;;1.37;100.00
60337;BME280;46978;50.288;28.624;2023-02-14T00:13:32;99537.17;;;1.37;100.00
60337;BME280;46978;50.288;28.624;2023-02-14T00:14:33;99536.31;;;1.38;100.00
60337;BME280;46978;50.288;28.624;2023-02-14T00:15:35;99532.05;;;1.37;100.00
60337;BME280;46978;50.288;28.624;2023-02-14T00:16:37;99526.95;;;1.37;100.00
60337;BME280;46978;50.288;28.624;2023-02-14T00:17:38;99534.61;;;1.37;100.00
60337;BME280;46978;50.288;28.624;2023-02-14T00:18:40;99523.53;;;1.38;100.00
60337;BME280;46978;50.288;28.624;2023-02-14T00:19:41;99514.16;;;1.37;100.00
60337;BME280;46978;50.288;28.624;2023-02-14T00:20:43;99519.27;;;1.37;100.00
60337;BME280;46978;50.288;28.624;2023-02-14T00:21:46;99513.30;;;1.38;100.00
60337;BME280;46978;50.288;28.624;2023-02-14T00:22:48;99516.72;;;1.37;100.00
60337;BME280;46978;50.288;28.624;2023-02-14T00:23:49;99514.16;;;1.37;100.00
60337;BME280;46978;50.288;28.624;2023-02-14T00:24:51;99517.56;;;1.37;100.00
60337;BME280;46978;50.288;28.624;2023-02-14T00:25:52;99518.39;;;1.36;100.00
60337;BME280;46978;50.288;28.624;2023-02-14T00:26:54;99528.61;;;1.36;100.00
60337;BME280;46978;50.288;28.624;2023-02-14T00:27:56;99520.95;;;1.36;100.00
60337;BME280;46978;50.288;28.624;2023-02-14T00:28:58;99520.09;;;1.36;100.00
60337;BME280;46978;50.288;28.624;2023-02-14T00:29:59;99518.42;;;1.38;100.00
60337;BME280;46978;50.288;28.624;2023-02-14T00:31:01;99520.98;;;1.38;100.00
60337;BME280;46978;50.288;28.624;2023-02-14T00:32:03;99523.53;;;1.38;100.00
60337;BME280;46978;50.288;28.624;2023-02-14T00:33:05;99514.19;;;1.38;100.00
60337;BME280;46978;50.288;28.624;2023-02-14T00:34:07;99522.72;;;1.39;100.00
60337;BME280;46978;50.288;28.624;2023-02-14T00:35:09;99518.42;;;1.38;100.00
60337;BME280;46978;50.288;28.624;2023-02-14T00:36:11;99524.42;;;1.38;100.00
60337;BME280;46978;50.288;28.624;2023-02-14T00:37:13;99524.45;;;1.40;100.00
60337;BME280;46978;50.288;28.624;2023-02-14T00:38:15;99514.22;;;1.40;100.00
60337;BME280;46978;50.288;28.624;2023-02-14T00:39:18;99516.81;;;1.41;100.00
60337;BME280;46978;50.288;28.624;2023-02-14T00:40:21;99514.22;;;1.40;100.00
60337;BME280;46978;50.288;28.624;2023-02-14T00:41:22;99521.86;;;1.38;100.00
60337;BME280;46978;50.288;28.624;2023-02-14T00:42:24;99523.56;;;1.39;100.00
60337;BME280;46978;50.288;28.624;2023-02-14T00:43:26;99513.34;;;1.39;100.00
60337;BME280;46978;50.288;28.624;2023-02-14T00:44:28;99516.78;;;1.40;100.00
60337;BME280;46978;50.288;28.624;2023-02-14T00:45:30;99517.60;;;1.39;100.00
60337;BME280;46978;50.288;28.624;2023-02-14T00:46:32;99515.86;;;1.38;100.00
60337;BME280;46978;50.288;28.624;2023-02-14T00:47:33;99519.27;;;1.37;100.00
60337;BME280;46978;50.288;28.624;2023-02-14T00:48:35;99522.69;;;1.37;100.00
60337;BME280;46978;50.288;28.624;2023-02-14T00:49:37;99517.56;;;1.37;100.00
60337;BME280;46978;50.288;28.624;2023-02-14T00:50:39;99516.72;;;1.37;100.00
60337;BME280;46978;50.288;28.624;2023-02-14T00:51:40;99520.13;;;1.37;100.00
60337;BME280;46978;50.288;28.624;2023-02-14T00:52:42;99517.53;;;1.36;100.00
60337;BME280;46978;50.288;28.624;2023-02-14T00:53:45;99519.27;;;1.37;100.00
60337;BME280;46978;50.288;28.624;2023-02-14T00:54:48;99511.61;;;1.37;100.00
60337;BME280;46978;50.288;28.624;2023-02-14T00:55:49;99514.22;;;1.40;100.00
60337;BME280;46978;50.288;28.624;2023-02-14T00:56:51;99508.19;;;1.38;100.00
60337;BME280;46978;50.288;28.624;2023-02-14T00:57:53;99520.16;;;1.39;100.00
60337;BME280;46978;50.288;28.624;2023-02-14T00:58:54;99515.05;;;1.39;100.00
60337;BME280;46978;50.288;28.624;2023-02-14T00:59:56;99520.16;;;1.39;100.00
60337;BME280;46978;50.288;28.624;2023-02-14T01:00:58;99518.42;;;1.38;100.00
60337;BME280;46978;50.288;28.624;2023-02-14T01:02:00;99517.60;;;1.39;100.00
60337;BME280;46978;50.288;28.624;2023-02-14T01:03:02;99521.86;;;1.38;100.00
60337;BME280;46978;50.288;28.624;2023-02-14T01:04:04;99520.19;;;1.40;100.00
60337;BME280;46978;50.288;28.624;2023-02-14T01:05:06;99511.70;;;1.41;100.00
60337;BME280;46978;50.288;28.624;2023-02-14T01:06:09;99522.81;;;1.43;100.00
60337;BME280;46978;50.288;28.624;2023-02-14T01:07:11;99529.70;;;1.46;100.00
60337;BME280;46978;50.288;28.624;2023-02-14T01:08:12;99521.14;;;1.46;100.00
60337;BME280;46978;50.288;28.624;2023-02-14T01:09:14;99528.81;;;1.46;100.00
60337;BME280;46978;50.288;28.624;2023-02-14T01:10:16;99522.84;;;1.45;100.00
60337;BME280;46978;50.288;28.624;2023-02-14T01:11:20;99523.70;;;1.46;100.00
60337;BME280;46978;50.288;28.624;2023-02-14T01:12:22;99527.96;;;1.45;100.00
60337;BME280;46978;50.288;28.624;2023-02-14T01:13:24;99533.07;;;1.45;100.00
60337;BME280;46978;50.288;28.624;2023-02-14T01:14:26;99519.41;;;1.43;100.00
60337;BME280;46978;50.288;28.624;2023-02-14T01:15:28;99526.25;;;1.46;100.00
60337;BME280;46978;50.288;28.624;2023-02-14T01:16:31;99516.88;;;1.45;100.00
60337;BME280;46978;50.288;28.624;2023-02-14T01:17:32;99505.70;;;1.41;100.00
60337;BME280;46978;50.288;28.624;2023-02-14T01:18:34;99505.70;;;1.41;100.00
60337;BME280;46978;50.288;28.624;2023-02-14T01:19:36;99513.47;;;1.46;100.00
60337;BME280;46978;50.288;28.624;2023-02-14T01:20:39;99510.91;;;1.46;100.00
60337;BME280;46978;50.288;28.624;2023-02-14T01:21:40;99518.55;;;1.44;100.00
60337;BME280;46978;50.288;28.624;2023-02-14T01:22:42;99508.29;;;1.42;100.00
60337;BME280;46978;50.288;28.624;2023-02-14T01:23:45;99505.80;;;1.46;100.00
60337;BME280;46978;50.288;28.624;2023-02-14T01:24:46;99514.35;;;1.46;100.00
60337;BME280;46978;50.288;28.624;2023-02-14T01:25:48;99506.68;;;1.46;100.00
60337;BME280;46978;50.288;28.624;2023-02-14T01:26:50;99498.16;;;1.47;100.00
60337;BME280;46978;50.288;28.624;2023-02-14T01:27:52;99504.16;;;1.48;100.00
60337;BME280;46978;50.288;28.624;2023-02-14T01:28:54;99496.48;;;1.48;100.00
60337;BME280;46978;50.288;28.624;2023-02-14T01:29:56;99494.81;;;1.50;100.00
60337;BME280;46978;50.288;28.624;2023-02-14T01:31:10;99487.14;;;1.50;100.00
60337;BME280;46978;50.288;28.624;2023-02-14T01:32:04;99488.84;;;1.49;100.00
60337;BME280;46978;50.288;28.624;2023-02-14T01:33:25;99487.99;;;1.50;100.00
60337;BME280;46978;50.288;28.624;2023-02-14T01:34:27;99490.55;;;1.50;100.00
60337;BME280;46978;50.288;28.624;2023-02-14T01:35:28;99499.98;;;1.53;100.00
60337;BME280;46978;50.288;28.624;2023-02-14T01:36:33;99494.88;;;1.53;100.00
60337;BME280;46978;50.288;28.624;2023-02-14T01:37:35;99488.02;;;1.52;100.00
60337;BME280;46978;50.288;28.624;2023-02-14T01:38:37;99494.02;;;1.52;100.00
60337;BME280;46978;50.288;28.624;2023-02-14T01:39:40;99494.02;;;1.52;100.00
60337;BME280;46978;50.288;28.624;2023-02-14T01:40:42;99489.73;;;1.51;100.00
60337;BME280;46978;50.288;28.624;2023-02-14T01:41:46;99497.44;;;1.53;100.00
60337;BME280;46978;50.288;28.624;2023-02-14T01:42:48;99499.98;;;1.53;100.00
60337;BME280;46978;50.288;28.624;2023-02-14T01:43:53;99490.61;;;1.53;100.00
60337;BME280;46978;50.288;28.624;2023-02-14T01:45:01;99496.61;;;1.54;100.00
60337;BME280;46978;50.288;28.624;2023-02-14T01:46:04;99497.47;;;1.54;100.00
60337;BME280;46978;50.288;28.624;2023-02-14T01:47:07;99479.53;;;1.53;100.00
60337;BME280;46978;50.288;28.624;2023-02-14T01:48:11;99487.96;;;1.49;100.00
60337;BME280;46978;50.288;28.624;2023-02-14T01:49:27;99485.50;;;1.53;100.00
60337;BME280;46978;50.288;28.624;2023-02-14T01:50:33;99481.23;;;1.52;100.00
60337;BME280;46978;50.288;28.624;2023-02-14T01:51:37;99474.38;;;1.51;100.00
60337;BME280;46978;50.288;28.624;2023-02-14T01:52:53;99486.35;;;1.52;100.00
60337;BME280;46978;50.288;28.624;2023-02-14T01:53:51;99478.65;;;1.51;100.00
60337;BME280;46978;50.288;28.624;2023-02-14T01:55:03;99471.83;;;1.51;100.00
60337;BME280;46978;50.288;28.624;2023-02-14T01:56:08;99474.38;;;1.51;100.00
60337;BME280;46978;50.288;28.624;2023-02-14T01:57:12;99469.27;;;1.51;100.00
60337;BME280;46978;50.288;28.624;2023-02-14T01:58:21;99464.16;;;1.51;100.00
60337;BME280;46978;50.288;28.624;2023-02-14T01:59:27;99463.33;;;1.52;100.00
60337;BME280;46978;50.288;28.624;2023-02-14T02:00:29;99458.22;;;1.52;100.00
60337;BME280;46978;50.288;28.624;2023-02-14T02:01:31;99474.42;;;1.53;100.00
60337;BME280;46978;50.288;28.624;2023-02-14T02:02:33;99464.19;;;1.53;100.00
60337;BME280;46978;50.288;28.624;2023-02-14T02:03:37;99456.52;;;1.53;100.00
60337;BME280;46978;50.288;28.624;2023-02-14T02:04:42;99459.05;;;1.51;100.00
60337;BME280;46978;50.288;28.624;2023-02-14T02:05:47;99465.89;;;1.52;100.00
60337;BME280;46978;50.288;28.624;2023-02-14T02:06:56;99457.37;;;1.53;100.00
60337;BME280;46978;50.288;28.624;2023-02-14T02:07:59;99461.66;;;1.54;100.00
60337;BME280;46978;50.288;28.624;2023-02-14T02:09:17;99458.22;;;1.52;100.00
60337;BME280;46978;50.288;28.624;2023-02-14T02:10:19;99457.34;;;1.52;100.00
60337;BME280;46978;50.288;28.624;2023-02-14T02:11:21;99459.92;;;1.53;100.00
60337;BME280;46978;50.288;28.624;2023-02-14T02:12:23;99453.95;;;1.53;100.00
60337;BME280;46978;50.288;28.624;2023-02-14T02:13:25;99458.22;;;1.52;100.00
60337;BME280;46978;50.288;28.624;2023-02-14T02:14:27;99453.11;;;1.52;100.00
60337;BME280;46978;50.288;28.624;2023-02-14T02:15:31;99454.81;;;1.53;100.00
60337;BME280;46978;50.288;28.624;2023-02-14T02:18:30;99458.28;;;1.55;100.00
60337;BME280;46978;50.288;28.624;2023-02-14T02:23:56;99443.00;;;1.58;100.00
60337;BME280;46978;50.288;28.624;2023-02-14T02:25:19;99457.45;;;1.58;100.00
60337;BME280;46978;50.288;28.624;2023-02-14T02:28:00;99454.05;;;1.57;100.00
60337;BME280;46978;50.288;28.624;2023-02-14T02:30:33;99453.23;;;1.58;100.00
60337;BME280;46978;50.288;28.624;2023-02-14T02:36:18;99444.58;;;1.53;100.00
60337;BME280;46978;50.288;28.624;2023-02-14T02:39:14;99426.66;;;1.52;100.00
60337;BME280;46978;50.288;28.624;2023-02-14T02:41:58;99422.39;;;1.51;100.00
60337;BME280;46978;50.288;28.624;2023-02-14T02:43:42;99425.80;;;1.51;100.00
60337;BME280;46978;50.288;28.624;2023-02-14T02:48:07;99433.47;;;1.51;100.00
60337;BME280;46978;50.288;28.624;2023-02-14T02:50:46;99413.86;;;1.52;100.00
60337;BME280;46978;50.288;28.624;2023-02-14T02:51:52;99427.53;;;1.52;100.00
60337;BME280;46978;50.288;28.624;2023-02-14T02:53:16;99422.42;;;1.52;100.00
60337;BME280;46978;50.288;28.624;2023-02-14T02:54:42;99418.16;;;1.53;100.00
60337;BME280;46978;50.288;28.624;2023-02-14T02:55:43;99421.56;;;1.53;100.00
60337;BME280;46978;50.288;28.624;2023-02-14T02:56:49;99426.70;;;1.55;100.00
60337;BME280;46978;50.288;28.624;2023-02-14T02:57:54;99423.30;;;1.54;100.00
60337;BME280;46978;50.288;28.624;2023-02-14T02:58:59;99419.89;;;1.54;100.00
60337;BME280;46978;50.288;28.624;2023-02-14T03:00:04;99423.33;;;1.56;100.00
60337;BME280;46978;50.288;28.624;2023-02-14T03:01:20;99417.33;;;1.54;100.00
60337;BME280;46978;50.288;28.624;2023-02-14T03:02:30;99431.00;;;1.56;100.00
60337;BME280;46978;50.288;28.624;2023-02-14T03:03:33;99434.41;;;1.56;100.00
60337;BME280;46978;50.288;28.624;2023-02-14T03:04:38;99428.45;;;1.56;100.00
60337;BME280;46978;50.288;28.624;2023-02-14T03:05:42;99425.06;;;1.57;100.00
60337;BME280;46978;50.288;28.624;2023-02-14T03:06:44;99432.70;;;1.55;100.00
60337;BME280;46978;50.288;28.624;2023-02-14T03:07:47;99440.38;;;1.55;100.00
60337;BME280;46978;50.288;28.624;2023-02-14T03:08:49;99446.31;;;1.54;100.00
60337;BME280;46978;50.288;28.624;2023-02-14T03:09:53;99449.75;;;1.56;100.00
60337;BME280;46978;50.288;28.624;2023-02-14T03:10:56;99455.72;;;1.55;100.00
60337;BME280;46978;50.288;28.624;2023-02-14T03:12:14;99445.49;;;1.55;100.00
60337;BME280;46978;50.288;28.624;2023-02-14T03:20:45;99452.31;;;1.56;100.00
60337;BME280;46978;50.288;28.624;2023-02-14T03:27:19;99451.55;;;1.60;100.00
60337;BME280;46978;50.288;28.624;2023-02-14T03:28:49;99459.22;;;1.60;100.00
60337;BME280;46978;50.288;28.624;2023-02-14T03:32:30;99448.17;;;1.61;100.00
60337;BME280;46978;50.288;28.624;2023-02-14T03:34:20;99445.61;;;1.61;100.00
60337;BME280;46978;50.288;28.624;2023-02-14T03:34:42;99436.20;;;1.60;100.00
60337;BME280;46978;50.288;28.624;2023-02-14T03:37:12;99412.34;;;1.60;100.00
60337;BME280;46978;50.288;28.624;2023-02-14T03:38:20;99434.50;;;1.61;100.00
60337;BME280;46978;50.288;28.624;2023-02-14T03:39:28;99446.44;;;1.60;100.00
60337;BME280;46978;50.288;28.624;2023-02-14T03:40:37;99445.61;;;1.61;100.00
60337;BME280;46978;50.288;28.624;2023-02-14T03:41:43;99447.29;;;1.61;99.99
60337;BME280;46978;50.288;28.624;2023-02-14T03:42:49;99454.96;;;1.61;99.68
60337;BME280;46978;50.288;28.624;2023-02-14T03:44:02;99452.46;;;1.64;99.72
60337;BME280;46978;50.288;28.624;2023-02-14T03:45:07;99444.76;;;1.63;99.57
60337;BME280;46978;50.288;28.624;2023-02-14T03:46:27;99437.09;;;1.63;99.62
60337;BME280;46978;50.288;28.624;2023-02-14T03:47:32;99443.94;;;1.64;99.58
60337;BME280;46978;50.288;28.624;2023-02-14T03:48:36;99447.34;;;1.64;99.41
60337;BME280;46978;50.288;28.624;2023-02-14T03:49:52;99459.28;;;1.64;99.29
60337;BME280;46978;50.288;28.624;2023-02-14T03:50:52;99449.91;;;1.64;99.33
60337;BME280;46978;50.288;28.624;2023-02-14T03:51:55;99453.41;;;1.68;99.37
60337;BME280;46978;50.288;28.624;2023-02-14T03:52:59;99442.23;;;1.64;99.38
60337;BME280;46978;50.288;28.624;2023-02-14T03:54:04;99447.38;;;1.66;99.40
60337;BME280;46978;50.288;28.624;2023-02-14T03:55:08;99449.94;;;1.66;99.29
60337;BME280;46978;50.288;28.624;2023-02-14T03:56:33;99452.48;;;1.66;99.33
60337;BME280;46978;50.288;28.624;2023-02-14T03:57:41;99456.73;;;1.64;99.20
60337;BME280;46978;50.288;28.624;2023-02-14T03:58:46;99455.08;;;1.67;99.34
60337;BME280;46978;50.288;28.624;2023-02-14T03:59:48;99464.45;;;1.67;99.27
60337;BME280;46978;50.288;28.624;2023-02-14T04:00:53;99465.31;;;1.67;99.32
60337;BME280;46978;50.288;28.624;2023-02-14T04:02:12;99474.69;;;1.67;99.22
60337;BME280;46978;50.288;28.624;2023-02-14T04:03:15;99481.48;;;1.65;99.23
60337;BME280;46978;50.288;28.624;2023-02-14T04:04:19;99482.34;;;1.65;99.22
60337;BME280;46978;50.288;28.624;2023-02-14T04:05:24;99484.04;;;1.65;99.27
60337;BME280;46978;50.288;28.624;2023-02-14T04:06:27;99496.83;;;1.65;99.23
60337;BME280;46978;50.288;28.624;2023-02-14T04:07:29;99481.42;;;1.61;99.03
60337;BME280;46978;50.288;28.624;2023-02-14T04:08:30;99487.42;;;1.64;99.08
60337;BME280;46978;50.288;28.624;2023-02-14T04:09:32;99481.48;;;1.65;99.15
60337;BME280;46978;50.288;28.624;2023-02-14T04:10:34;99488.30;;;1.66;99.02
60337;BME280;46978;50.288;28.624;2023-02-14T04:11:36;99478.92;;;1.65;99.04
60337;BME280;46978;50.288;28.624;2023-02-14T04:12:38;99490.86;;;1.66;99.05
60337;BME280;46978;50.288;28.624;2023-02-14T04:13:39;99489.16;;;1.65;99.05
60337;BME280;46978;50.288;28.624;2023-02-14T04:14:41;99493.36;;;1.63;99.04
60337;BME280;46978;50.288;28.624;2023-02-14T04:15:43;99497.68;;;1.65;99.16
60337;BME280;46978;50.288;28.624;2023-02-14T04:16:45;99492.53;;;1.64;99.10
60337;BME280;46978;50.288;28.624;2023-02-14T04:17:47;99492.50;;;1.62;99.12
60337;BME280;46978;50.288;28.624;2023-02-14T04:18:48;99498.47;;;1.63;99.16
60337;BME280;46978;50.288;28.624;2023-02-14T04:19:51;99500.14;;;1.60;99.31
60337;BME280;46978;50.288;28.624;2023-02-14T04:20:53;99500.14;;;1.60;99.34
60337;BME280;46978;50.288;28.624;2023-02-14T04:21:54;99492.47;;;1.60;99.43
60337;BME280;46978;50.288;28.624;2023-02-14T04:22:56;99504.44;;;1.61;99.41
60337;BME280;46978;50.288;28.624;2023-02-14T04:23:57;99511.27;;;1.63;99.42
60337;BME280;46978;50.288;28.624;2023-02-14T04:24:59;99498.44;;;1.61;99.46
60337;BME280;46978;50.288;28.624;2023-02-14T04:26:01;99502.67;;;1.59;99.56
60337;BME280;46978;50.288;28.624;2023-02-14T04:27:03;99503.49;;;1.58;99.61
60337;BME280;46978;50.288;28.624;2023-02-14T04:28:04;99500.11;;;1.59;99.79
60337;BME280;46978;50.288;28.624;2023-02-14T04:29:06;99496.73;;;1.60;99.79
60337;BME280;46978;50.288;28.624;2023-02-14T04:30:09;99497.59;;;1.60;99.87
60337;BME280;46978;50.288;28.624;2023-02-14T04:31:12;99503.52;;;1.59;100.00
60337;BME280;46978;50.288;28.624;2023-02-14T04:32:16;99514.61;;;1.58;100.00
60337;BME280;46978;50.288;28.624;2023-02-14T04:33:18;99505.20;;;1.57;100.00
60337;BME280;46978;50.288;28.624;2023-02-14T04:34:20;99510.31;;;1.57;100.00
60337;BME280;46978;50.288;28.624;2023-02-14T04:35:21;99503.46;;;1.56;100.00
60337;BME280;46978;50.288;28.624;2023-02-14T04:36:23;99523.77;;;1.49;100.00
60337;BME280;46978;50.288;28.624;2023-02-14T04:37:25;99516.03;;;1.46;100.00
60337;BME280;46978;50.288;28.624;2023-02-14T04:38:27;99520.25;;;1.43;100.00
60337;BME280;46978;50.288;28.624;2023-02-14T04:39:29;99518.48;;;1.41;100.00
60337;BME280;46978;50.288;28.624;2023-02-14T04:40:31;99518.48;;;1.41;100.00
60337;BME280;46978;50.288;28.624;2023-02-14T04:41:32;99513.34;;;1.39;100.00
60337;BME280;46978;50.288;28.624;2023-02-14T04:42:34;99519.34;;;1.40;100.00
60337;BME280;46978;50.288;28.624;2023-02-14T04:43:36;99527.83;;;1.39;100.00
60337;BME280;46978;50.288;28.624;2023-02-14T04:44:37;99511.61;;;1.37;100.00
60337;BME280;46978;50.288;28.624;2023-02-14T04:45:39;99520.13;;;1.37;100.00
60337;BME280;46978;50.288;28.624;2023-02-14T04:46:41;99526.88;;;1.34;100.00
60337;BME280;46978;50.288;28.624;2023-02-14T04:47:42;99524.25;;;1.31;100.00
60337;BME280;46978;50.288;28.624;2023-02-14T04:48:44;99517.30;;;1.25;100.00
60337;BME280;46978;50.288;28.624;2023-02-14T04:49:46;99520.74;;;1.25;100.00
60337;BME280;46978;50.288;28.624;2023-02-14T04:50:52;99516.45;;;1.24;100.00
60337;BME280;46978;50.288;28.624;2023-02-14T04:51:55;99522.42;;;1.25;100.00
60337;BME280;46978;50.288;28.624;2023-02-14T04:52:57;99530.02;;;1.22;100.00
60337;BME280;46978;50.288;28.624;2023-02-14T04:53:58;99514.68;;;1.22;100.00
60337;BME280;46978;50.288;28.624;2023-02-14T04:55:00;99528.28;;;1.19;100.00
60337;BME280;46978;50.288;28.624;2023-02-14T04:56:02;99526.54;;;1.18;100.00
60337;BME280;46978;50.288;28.624;2023-02-14T04:57:04;99531.69;;;1.20;100.00
60337;BME280;46978;50.288;28.624;2023-02-14T04:58:05;99530.87;;;1.21;100.00
60337;BME280;46978;50.288;28.624;2023-02-14T04:59:07;99532.50;;;1.19;100.00
60337;BME280;46978;50.288;28.624;2023-02-14T05:00:11;99532.44;;;1.16;100.00
60337;BME280;46978;50.288;28.624;2023-02-14T05:01:13;99530.77;;;1.16;100.00
60337;BME280;46978;50.288;28.624;2023-02-14T05:02:15;99533.32;;;1.16;100.00
60337;BME280;46978;50.288;28.624;2023-02-14T05:03:17;99537.55;;;1.16;100.00
60337;BME280;46978;50.288;28.624;2023-02-14T05:04:19;99537.55;;;1.16;100.00
60337;BME280;46978;50.288;28.624;2023-02-14T05:05:41;99543.47;;;1.13;100.00
60337;BME280;46978;50.288;28.624;2023-02-14T05:06:42;99542.55;;;1.11;100.00
60337;BME280;46978;50.288;28.624;2023-02-14T05:07:44;99542.59;;;1.13;100.00
60337;BME280;46978;50.288;28.624;2023-02-14T05:08:46;99546.88;;;1.14;100.00
60337;BME280;46978;50.288;28.624;2023-02-14T05:09:47;99548.59;;;1.13;100.00
60337;BME280;46978;50.288;28.624;2023-02-14T05:10:49;99546.03;;;1.13;100.00
60337;BME280;46978;50.288;28.624;2023-02-14T05:11:51;99555.37;;;1.13;100.00
60337;BME280;46978;50.288;28.624;2023-02-14T05:12:52;99557.11;;;1.14;100.00
60337;BME280;46978;50.288;28.624;2023-02-14T05:13:54;99547.70;;;1.13;100.00
60337;BME280;46978;50.288;28.624;2023-02-14T05:14:56;99542.63;;;1.14;100.00
60337;BME280;46978;50.288;28.624;2023-02-14T05:15:58;99544.25;;;1.11;100.00
60337;BME280;46978;50.288;28.624;2023-02-14T05:17:00;99544.25;;;1.11;100.00
60337;BME280;46978;50.288;28.624;2023-02-14T05:18:01;99542.55;;;1.11;100.00
60337;BME280;46978;50.288;28.624;2023-02-14T05:19:03;99551.08;;;1.10;100.00
60337;BME280;46978;50.288;28.624;2023-02-14T05:20:06;99544.22;;;1.09;100.00
60337;BME280;46978;50.288;28.624;2023-02-14T05:21:08;99546.81;;;1.11;100.00
60337;BME280;46978;50.288;28.624;2023-02-14T05:22:10;99548.48;;;1.09;100.00
60337;BME280;46978;50.288;28.624;2023-02-14T05:23:11;99546.78;;;1.09;100.00
60337;BME280;46978;50.288;28.624;2023-02-14T05:24:14;99545.96;;;1.10;100.00
60337;BME280;46978;50.288;28.624;2023-02-14T05:25:16;99546.81;;;1.11;100.00
60337;BME280;46978;50.288;28.624;2023-02-14T05:26:18;99557.00;;;1.09;100.00
60337;BME280;46978;50.288;28.624;2023-02-14T05:27:20;99552.70;;;1.08;100.00
60337;BME280;46978;50.288;28.624;2023-02-14T05:28:21;99554.38;;;1.06;100.00
60337;BME280;46978;50.288;28.624;2023-02-14T05:29:23;99554.41;;;1.07;100.00
60337;BME280;46978;50.288;28.624;2023-02-14T05:30:25;99551.78;;;1.04;100.00
60337;BME280;46978;50.288;28.624;2023-02-14T05:31:26;99551.82;;;1.06;100.00
60337;BME280;46978;50.288;28.624;2023-02-14T05:32:28;99550.08;;;1.05;100.00
60337;BME280;46978;50.288;28.624;2023-02-14T05:33:30;99552.67;;;1.06;100.00
60337;BME280;46978;50.288;28.624;2023-02-14T05:34:31;99550.15;;;1.08;100.00
60337;BME280;46978;50.288;28.624;2023-02-14T05:35:33;99551.03;;;1.09;100.00
60337;BME280;46978;50.288;28.624;2023-02-14T05:36:35;99541.67;;;1.09;100.00
60337;BME280;46978;50.288;28.624;2023-02-14T05:37:37;99539.93;;;1.08;100.00
60337;BME280;46978;50.288;28.624;2023-02-14T05:38:38;99542.52;;;1.10;100.00
60337;BME280;46978;50.288;28.624;2023-02-14T05:39:40;99546.78;;;1.09;100.00
60337;BME280;46978;50.288;28.624;2023-02-14T05:40:42;99548.41;;;1.05;100.00
60337;BME280;46978;50.288;28.624;2023-02-14T05:41:44;99554.38;;;1.06;100.00
60337;BME280;46978;50.288;28.624;2023-02-14T05:42:46;99549.33;;;1.09;100.00
60337;BME280;46978;50.288;28.624;2023-02-14T05:43:48;99545.00;;;1.06;100.00
60337;BME280;46978;50.288;28.624;2023-02-14T05:44:49;99550.15;;;1.08;100.00
60337;BME280;46978;50.288;28.624;2023-02-14T05:45:51;99539.89;;;1.06;100.00
60337;BME280;46978;50.288;28.624;2023-02-14T05:46:53;99552.63;;;1.05;100.00
60337;BME280;46978;50.288;28.624;2023-02-14T05:47:55;99553.52;;;1.05;100.00
60337;BME280;46978;50.288;28.624;2023-02-14T05:48:56;99562.89;;;1.06;100.00
60337;BME280;46978;50.288;28.624;2023-02-14T05:49:59;99564.59;;;1.06;100.00
60337;BME280;46978;50.288;28.624;2023-02-14T05:51:05;99555.23;;;1.06;100.00
60337;BME280;46978;50.288;28.624;2023-02-14T05:52:07;99560.38;;;1.08;100.00
60337;BME280;46978;50.288;28.624;2023-02-14T05:53:10;99555.27;;;1.08;100.00
60337;BME280;46978;50.288;28.624;2023-02-14T05:54:12;99576.59;;;1.09;100.00
60337;BME280;46978;50.288;28.624;2023-02-14T05:55:13;99568.04;;;1.08;100.00
60337;BME280;46978;50.288;28.624;2023-02-14T05:56:17;99562.96;;;1.10;100.00
60337;BME280;46978;50.288;28.624;2023-02-14T05:57:18;99566.30;;;1.05;100.00
60337;BME280;46978;50.288;28.624;2023-02-14T05:58:20;99566.30;;;1.05;100.00
60337;BME280;46978;50.288;28.624;2023-02-14T05:59:22;99565.48;;;1.08;100.00
60337;BME280;46978;50.288;28.624;2023-02-14T06:00:24;99558.70;;;1.09;100.00
60337;BME280;46978;50.288;28.624;2023-02-14T06:01:26;99562.86;;;1.05;100.00
60337;BME280;46978;50.288;28.624;2023-02-14T06:02:27;99562.11;;;1.09;100.00
60337;BME280;46978;50.288;28.624;2023-02-14T06:03:29;99565.52;;;1.10;100.00
60337;BME280;46978;50.288;28.624;2023-02-14T06:04:30;99567.30;;;1.12;100.00
60337;BME280;46978;50.288;28.624;2023-02-14T06:05:32;99575.81;;;1.13;100.00
60337;BME280;46978;50.288;28.624;2023-02-14T06:06:34;99563.89;;;1.12;100.00
60337;BME280;46978;50.288;28.624;2023-02-14T06:07:36;99567.30;;;1.12;100.00
60337;BME280;46978;50.288;28.624;2023-02-14T06:08:37;99573.19;;;1.10;100.00
60337;BME280;46978;50.288;28.624;2023-02-14T06:09:39;99566.33;;;1.07;100.00
60337;BME280;46978;50.288;28.624;2023-02-14T06:10:41;99566.33;;;1.07;100.00
60337;BME280;46978;50.288;28.624;2023-02-14T06:11:43;99571.45;;;1.07;100.00
60337;BME280;46978;50.288;28.624;2023-02-14T06:12:45;99582.52;;;1.07;100.00
60337;BME280;46978;50.288;28.624;2023-02-14T06:13:48;99576.52;;;1.05;100.00